sensor_id;sensor_type;location;lat;lon;timestamp;temperature;humidity
1301;DHT22;59099;48.806;9.160;2022-09-12T00:00:30;12.90;99.90
1301;DHT22;59099;48.806;9.160;2022-09-12T00:02:57;12.90;99.90
1301;DHT22;59099;48.806;9.160;2022-09-12T00:05:24;12.80;99.90
1301;DHT22;59099;48.806;9.160;2022-09-12T00:07:50;12.90;99.90
1301;DHT22;59099;48.806;9.160;2022-09-12T00:10:16;12.80;99.90
1301;DHT22;59099;48.806;9.160;2022-09-12T00:12:42;12.80;99.90
1301;DHT22;59099;48.806;9.160;2022-09-12T00:15:09;12.80;99.90
1301;DHT22;59099;48.806;9.160;2022-09-12T00:17:37;12.80;99.90
1301;DHT22;59099;48.806;9.160;2022-09-12T00:20:05;12.80;99.90
1301;DHT22;59099;48.806;9.160;2022-09-12T00:22:32;12.90;99.90
1301;DHT22;59099;48.806;9.160;2022-09-12T00:24:58;12.80;99.90
1301;DHT22;59099;48.806;9.160;2022-09-12T00:27:24;12.80;99.90
1301;DHT22;59099;48.806;9.160;2022-09-12T00:29:50;12.80;99.90
1301;DHT22;59099;48.806;9.160;2022-09-12T00:32:15;12.80;99.90
1301;DHT22;59099;48.806;9.160;2022-09-12T00:34:41;12.70;99.90
1301;DHT22;59099;48.806;9.160;2022-09-12T00:37:07;12.80;99.90
1301;DHT22;59099;48.806;9.160;2022-09-12T00:39:33;12.70;99.90
1301;DHT22;59099;48.806;9.160;2022-09-12T00:41:58;12.70;99.90
1301;DHT22;59099;48.806;9.160;2022-09-12T00:46:58;12.60;99.90
1301;DHT22;59099;48.806;9.160;2022-09-12T00:52:08;12.60;99.90
1301;DHT22;59099;48.806;9.160;2022-09-12T00:54:56;12.60;99.90
1301;DHT22;59099;48.806;9.160;2022-09-12T00:57:29;12.50;99.90
1301;DHT22;59099;48.806;9.160;2022-09-12T01:00:17;12.50;99.90
1301;DHT22;59099;48.806;9.160;2022-09-12T01:02:48;12.40;99.90
1301;DHT22;59099;48.806;9.160;2022-09-12T01:05:15;12.30;99.90
1301;DHT22;59099;48.806;9.160;2022-09-12T01:07:41;12.20;99.90
1301;DHT22;59099;48.806;9.160;2022-09-12T01:10:08;12.30;99.90
1301;DHT22;59099;48.806;9.160;2022-09-12T01:12:37;12.30;99.90
1301;DHT22;59099;48.806;9.160;2022-09-12T01:15:04;12.30;99.90
1301;DHT22;59099;48.806;9.160;2022-09-12T01:23:28;12.30;99.90
1301;DHT22;59099;48.806;9.160;2022-09-12T01:28:48;12.30;99.90
1301;DHT22;59099;48.806;9.160;2022-09-12T01:34:15;12.20;99.90
1301;DHT22;59099;48.806;9.160;2022-09-12T01:37:10;12.20;99.90
1301;DHT22;59099;48.806;9.160;2022-09-12T01:42:31;12.10;99.90
1301;DHT22;59099;48.806;9.160;2022-09-12T01:45:07;12.10;99.90
1301;DHT22;59099;48.806;9.160;2022-09-12T01:47:44;12.10;99.90
1301;DHT22;59099;48.806;9.160;2022-09-12T01:50:24;12.00;99.90
1301;DHT22;59099;48.806;9.160;2022-09-12T01:52:56;12.00;99.90
1301;DHT22;59099;48.806;9.160;2022-09-12T01:55:31;12.00;99.90
1301;DHT22;59099;48.806;9.160;2022-09-12T01:58:11;11.90;99.90
1301;DHT22;59099;48.806;9.160;2022-09-12T02:00:45;11.90;99.90
1301;DHT22;59099;48.806;9.160;2022-09-12T02:03:19;11.90;99.90
1301;DHT22;59099;48.806;9.160;2022-09-12T02:05:52;11.80;99.90
1301;DHT22;59099;48.806;9.160;2022-09-12T02:11:14;11.80;99.90
1301;DHT22;59099;48.806;9.160;2022-09-12T02:16:25;11.70;99.90
1301;DHT22;59099;48.806;9.160;2022-09-12T02:18:56;11.80;99.90
1301;DHT22;59099;48.806;9.160;2022-09-12T02:21:25;11.80;99.90
1301;DHT22;59099;48.806;9.160;2022-09-12T02:23:58;11.80;99.90
1301;DHT22;59099;48.806;9.160;2022-09-12T02:26:32;11.80;99.90
1301;DHT22;59099;48.806;9.160;2022-09-12T02:29:00;11.70;99.90
1301;DHT22;59099;48.806;9.160;2022-09-12T02:31:31;11.70;99.90
1301;DHT22;59099;48.806;9.160;2022-09-12T02:39:41;11.70;99.90
1301;DHT22;59099;48.806;9.160;2022-09-12T02:42:07;11.80;99.90
1301;DHT22;59099;48.806;9.160;2022-09-12T02:44:34;11.80;99.90
1301;DHT22;59099;48.806;9.160;2022-09-12T02:47:09;11.80;99.90
1301;DHT22;59099;48.806;9.160;2022-09-12T02:49:37;11.70;99.90
1301;DHT22;59099;48.806;9.160;2022-09-12T02:52:03;11.60;99.90
1301;DHT22;59099;48.806;9.160;2022-09-12T02:54:29;11.50;99.90
1301;DHT22;59099;48.806;9.160;2022-09-12T02:56:55;11.50;99.90
1301;DHT22;59099;48.806;9.160;2022-09-12T02:59:22;11.50;99.90
1301;DHT22;59099;48.806;9.160;2022-09-12T03:04:52;11.40;99.90
1301;DHT22;59099;48.806;9.160;2022-09-12T03:10:54;11.50;99.90
1301;DHT22;59099;48.806;9.160;2022-09-12T03:16:32;11.40;99.90
1301;DHT22;59099;48.806;9.160;2022-09-12T03:24:28;11.40;99.90
1301;DHT22;59099;48.806;9.160;2022-09-12T03:27:06;11.40;99.90
1301;DHT22;59099;48.806;9.160;2022-09-12T03:29:36;11.40;99.90
1301;DHT22;59099;48.806;9.160;2022-09-12T03:32:02;11.40;99.90
1301;DHT22;59099;48.806;9.160;2022-09-12T03:34:28;11.40;99.90
1301;DHT22;59099;48.806;9.160;2022-09-12T03:36:54;11.40;99.90
1301;DHT22;59099;48.806;9.160;2022-09-12T03:39:21;11.30;99.90
1301;DHT22;59099;48.806;9.160;2022-09-12T03:41:49;11.20;99.90
1301;DHT22;59099;48.806;9.160;2022-09-12T03:44:16;11.20;99.90
1301;DHT22;59099;48.806;9.160;2022-09-12T03:46:42;11.20;99.90
1301;DHT22;59099;48.806;9.160;2022-09-12T03:49:07;11.20;99.90
1301;DHT22;59099;48.806;9.160;2022-09-12T03:51:33;11.20;99.90
1301;DHT22;59099;48.806;9.160;2022-09-12T03:53:59;11.10;99.90
1301;DHT22;59099;48.806;9.160;2022-09-12T03:56:25;11.10;99.90
1301;DHT22;59099;48.806;9.160;2022-09-12T03:58:51;11.10;99.90
1301;DHT22;59099;48.806;9.160;2022-09-12T04:01:18;11.10;99.90
1301;DHT22;59099;48.806;9.160;2022-09-12T04:03:46;11.00;99.90
1301;DHT22;59099;48.806;9.160;2022-09-12T04:06:16;11.10;99.90
1301;DHT22;59099;48.806;9.160;2022-09-12T04:08:50;11.10;99.90
1301;DHT22;59099;48.806;9.160;2022-09-12T04:11:17;11.00;99.90
1301;DHT22;59099;48.806;9.160;2022-09-12T04:13:44;11.00;99.90
1301;DHT22;59099;48.806;9.160;2022-09-12T04:16:11;11.10;99.90
1301;DHT22;59099;48.806;9.160;2022-09-12T04:18:38;11.00;99.90
1301;DHT22;59099;48.806;9.160;2022-09-12T04:21:05;11.00;99.90
1301;DHT22;59099;48.806;9.160;2022-09-12T04:23:32;10.90;99.90
1301;DHT22;59099;48.806;9.160;2022-09-12T04:25:59;10.90;99.90
1301;DHT22;59099;48.806;9.160;2022-09-12T04:28:26;10.90;99.90
1301;DHT22;59099;48.806;9.160;2022-09-12T04:30:54;10.90;99.90
1301;DHT22;59099;48.806;9.160;2022-09-12T04:33:20;10.90;99.90
1301;DHT22;59099;48.806;9.160;2022-09-12T04:35:46;10.90;99.90
1301;DHT22;59099;48.806;9.160;2022-09-12T04:38:12;10.90;99.90
1301;DHT22;59099;48.806;9.160;2022-09-12T04:40:38;10.90;99.90
1301;DHT22;59099;48.806;9.160;2022-09-12T04:43:04;10.90;99.90
1301;DHT22;59099;48.806;9.160;2022-09-12T04:45:32;10.90;99.90
1301;DHT22;59099;48.806;9.160;2022-09-12T04:47:58;10.80;99.90
1301;DHT22;59099;48.806;9.160;2022-09-12T04:50:24;10.80;99.90
1301;DHT22;59099;48.806;9.160;2022-09-12T04:52:51;10.80;99.90
1301;DHT22;59099;48.806;9.160;2022-09-12T04:55:18;10.70;99.90
1301;DHT22;59099;48.806;9.160;2022-09-12T04:57:44;10.80;99.90
1301;DHT22;59099;48.806;9.160;2022-09-12T05:00:10;10.80;99.90
1301;DHT22;59099;48.806;9.160;2022-09-12T05:02:40;10.70;99.90
1301;DHT22;59099;48.806;9.160;2022-09-12T05:05:07;10.70;99.90
1301;DHT22;59099;48.806;9.160;2022-09-12T05:07:33;10.70;99.90
1301;DHT22;59099;48.806;9.160;2022-09-12T05:09:59;10.70;99.90
1301;DHT22;59099;48.806;9.160;2022-09-12T05:12:26;10.70;99.90
1301;DHT22;59099;48.806;9.160;2022-09-12T05:14:51;10.80;99.90
1301;DHT22;59099;48.806;9.160;2022-09-12T05:17:17;10.80;99.90
1301;DHT22;59099;48.806;9.160;2022-09-12T05:19:43;10.80;99.90
1301;DHT22;59099;48.806;9.160;2022-09-12T05:22:09;10.80;99.90
1301;DHT22;59099;48.806;9.160;2022-09-12T05:24:38;10.80;99.90
1301;DHT22;59099;48.806;9.160;2022-09-12T05:27:07;10.70;99.90
1301;DHT22;59099;48.806;9.160;2022-09-12T05:29:33;10.70;99.90
1301;DHT22;59099;48.806;9.160;2022-09-12T05:31:59;10.80;99.90
1301;DHT22;59099;48.806;9.160;2022-09-12T05:34:27;10.80;99.90
1301;DHT22;59099;48.806;9.160;2022-09-12T05:36:53;10.90;99.90
1301;DHT22;59099;48.806;9.160;2022-09-12T05:39:21;10.90;99.90
1301;DHT22;59099;48.806;9.160;2022-09-12T05:41:47;10.90;99.90
1301;DHT22;59099;48.806;9.160;2022-09-12T05:44:14;11.00;99.90
1301;DHT22;59099;48.806;9.160;2022-09-12T05:46:41;11.00;99.90
1301;DHT22;59099;48.806;9.160;2022-09-12T05:49:10;11.00;99.90
1301;DHT22;59099;48.806;9.160;2022-09-12T05:51:39;10.90;99.90
1301;DHT22;59099;48.806;9.160;2022-09-12T05:54:08;10.90;99.90
1301;DHT22;59099;48.806;9.160;2022-09-12T05:56:38;10.90;99.90
1301;DHT22;59099;48.806;9.160;2022-09-12T05:59:16;10.90;99.90
1301;DHT22;59099;48.806;9.160;2022-09-12T06:01:43;11.10;99.90
1301;DHT22;59099;48.806;9.160;2022-09-12T06:04:09;11.00;99.90
1301;DHT22;59099;48.806;9.160;2022-09-12T06:06:40;11.00;99.90
1301;DHT22;59099;48.806;9.160;2022-09-12T06:09:06;11.10;99.90
1301;DHT22;59099;48.806;9.160;2022-09-12T06:11:33;11.30;99.90
1301;DHT22;59099;48.806;9.160;2022-09-12T06:14:00;11.30;99.90
1301;DHT22;59099;48.806;9.160;2022-09-12T06:16:29;11.30;99.90
1301;DHT22;59099;48.806;9.160;2022-09-12T06:18:56;11.40;99.90
1301;DHT22;59099;48.806;9.160;2022-09-12T06:21:23;11.40;99.90
1301;DHT22;59099;48.806;9.160;2022-09-12T06:23:50;11.40;99.90
1301;DHT22;59099;48.806;9.160;2022-09-12T06:26:17;11.50;99.90
1301;DHT22;59099;48.806;9.160;2022-09-12T06:28:46;11.50;99.90
1301;DHT22;59099;48.806;9.160;2022-09-12T06:31:18;11.70;99.90
1301;DHT22;59099;48.806;9.160;2022-09-12T06:33:47;11.80;99.90
1301;DHT22;59099;48.806;9.160;2022-09-12T06:36:19;11.70;99.90
1301;DHT22;59099;48.806;9.160;2022-09-12T06:38:45;11.80;99.90
1301;DHT22;59099;48.806;9.160;2022-09-12T06:41:13;11.90;99.90
1301;DHT22;59099;48.806;9.160;2022-09-12T06:43:40;11.90;99.90
1301;DHT22;59099;48.806;9.160;2022-09-12T06:46:06;12.00;99.90
1301;DHT22;59099;48.806;9.160;2022-09-12T06:48:33;12.20;99.90
1301;DHT22;59099;48.806;9.160;2022-09-12T06:51:01;12.30;99.90
1301;DHT22;59099;48.806;9.160;2022-09-12T06:53:32;12.30;99.90
1301;DHT22;59099;48.806;9.160;2022-09-12T06:55:59;12.30;99.90
1301;DHT22;59099;48.806;9.160;2022-09-12T06:58:26;12.40;99.90
1301;DHT22;59099;48.806;9.160;2022-09-12T07:01:03;12.50;99.90
1301;DHT22;59099;48.806;9.160;2022-09-12T07:03:30;12.60;99.90
1301;DHT22;59099;48.806;9.160;2022-09-12T07:05:56;12.80;99.90
1301;DHT22;59099;48.806;9.160;2022-09-12T07:08:22;12.90;99.90
1301;DHT22;59099;48.806;9.160;2022-09-12T07:10:49;13.00;99.90
1301;DHT22;59099;48.806;9.160;2022-09-12T07:13:14;13.10;99.90
1301;DHT22;59099;48.806;9.160;2022-09-12T07:15:40;13.20;99.90
1301;DHT22;59099;48.806;9.160;2022-09-12T07:18:06;13.30;99.90
1301;DHT22;59099;48.806;9.160;2022-09-12T07:20:32;13.60;99.90
1301;DHT22;59099;48.806;9.160;2022-09-12T07:22:58;13.60;99.90
1301;DHT22;59099;48.806;9.160;2022-09-12T07:25:24;13.60;99.90
1301;DHT22;59099;48.806;9.160;2022-09-12T07:27:52;13.80;99.90
1301;DHT22;59099;48.806;9.160;2022-09-12T07:30:21;14.10;99.90
1301;DHT22;59099;48.806;9.160;2022-09-12T07:32:54;14.30;99.90
1301;DHT22;59099;48.806;9.160;2022-09-12T07:35:20;14.40;99.90
1301;DHT22;59099;48.806;9.160;2022-09-12T07:37:46;14.60;99.90
1301;DHT22;59099;48.806;9.160;2022-09-12T07:40:12;14.80;99.90
1301;DHT22;59099;48.806;9.160;2022-09-12T07:42:38;14.90;99.90
1301;DHT22;59099;48.806;9.160;2022-09-12T07:45:04;15.10;99.90
1301;DHT22;59099;48.806;9.160;2022-09-12T07:47:30;15.20;99.90
1301;DHT22;59099;48.806;9.160;2022-09-12T07:49:55;15.40;99.90
1301;DHT22;59099;48.806;9.160;2022-09-12T07:52:21;15.60;99.90
1301;DHT22;59099;48.806;9.160;2022-09-12T07:54:47;15.70;99.90
1301;DHT22;59099;48.806;9.160;2022-09-12T07:57:13;15.80;99.90
1301;DHT22;59099;48.806;9.160;2022-09-12T07:59:40;15.90;99.90
1301;DHT22;59099;48.806;9.160;2022-09-12T08:02:13;16.00;99.90
1301;DHT22;59099;48.806;9.160;2022-09-12T08:04:39;16.10;99.90
1301;DHT22;59099;48.806;9.160;2022-09-12T08:07:07;16.20;99.90
1301;DHT22;59099;48.806;9.160;2022-09-12T08:09:33;16.30;99.90
1301;DHT22;59099;48.806;9.160;2022-09-12T08:12:00;16.50;99.90
1301;DHT22;59099;48.806;9.160;2022-09-12T08:14:26;16.60;99.90
1301;DHT22;59099;48.806;9.160;2022-09-12T08:16:52;16.70;99.90
1301;DHT22;59099;48.806;9.160;2022-09-12T08:19:23;16.80;99.90
1301;DHT22;59099;48.806;9.160;2022-09-12T08:21:49;16.90;99.90
1301;DHT22;59099;48.806;9.160;2022-09-12T08:24:14;16.90;99.90
1301;DHT22;59099;48.806;9.160;2022-09-12T08:26:45;17.10;99.90
1301;DHT22;59099;48.806;9.160;2022-09-12T08:29:11;17.20;99.90
1301;DHT22;59099;48.806;9.160;2022-09-12T08:31:37;17.30;99.90
1301;DHT22;59099;48.806;9.160;2022-09-12T08:34:04;17.40;99.90
1301;DHT22;59099;48.806;9.160;2022-09-12T08:36:30;17.50;99.90
1301;DHT22;59099;48.806;9.160;2022-09-12T08:38:58;17.60;99.90
1301;DHT22;59099;48.806;9.160;2022-09-12T08:41:43;17.60;99.90
1301;DHT22;59099;48.806;9.160;2022-09-12T08:47:21;17.80;99.90
1301;DHT22;59099;48.806;9.160;2022-09-12T08:57:47;18.40;99.90
1301;DHT22;59099;48.806;9.160;2022-09-12T09:00:13;18.50;99.90
1301;DHT22;59099;48.806;9.160;2022-09-12T09:03:03;18.60;99.90
1301;DHT22;59099;48.806;9.160;2022-09-12T09:05:50;18.80;99.90
1301;DHT22;59099;48.806;9.160;2022-09-12T09:16:54;19.50;99.90
1301;DHT22;59099;48.806;9.160;2022-09-12T09:19:29;19.70;99.90
1301;DHT22;59099;48.806;9.160;2022-09-12T09:22:15;19.90;99.90
1301;DHT22;59099;48.806;9.160;2022-09-12T09:24:53;19.90;99.90
1301;DHT22;59099;48.806;9.160;2022-09-12T09:27:28;20.10;99.90
1301;DHT22;59099;48.806;9.160;2022-09-12T09:29:55;20.20;99.90
1301;DHT22;59099;48.806;9.160;2022-09-12T09:32:36;20.40;99.90
1301;DHT22;59099;48.806;9.160;2022-09-12T09:35:28;20.70;99.90
1301;DHT22;59099;48.806;9.160;2022-09-12T09:43:25;22.30;99.90
1301;DHT22;59099;48.806;9.160;2022-09-12T09:45:53;23.40;99.90
1301;DHT22;59099;48.806;9.160;2022-09-12T09:48:26;25.10;99.90
1301;DHT22;59099;48.806;9.160;2022-09-12T09:50:53;26.30;99.90
1301;DHT22;59099;48.806;9.160;2022-09-12T09:58:51;30.10;94.90
1301;DHT22;59099;48.806;9.160;2022-09-12T10:01:17;30.90;90.60
1301;DHT22;59099;48.806;9.160;2022-09-12T10:03:52;31.80;89.90
1301;DHT22;59099;48.806;9.160;2022-09-12T10:08:44;33.90;82.80
1301;DHT22;59099;48.806;9.160;2022-09-12T10:11:20;34.30;67.40
1301;DHT22;59099;48.806;9.160;2022-09-12T10:13:51;34.40;71.10
1301;DHT22;59099;48.806;9.160;2022-09-12T10:16:26;34.50;60.10
1301;DHT22;59099;48.806;9.160;2022-09-12T10:18:55;35.10;61.40
1301;DHT22;59099;48.806;9.160;2022-09-12T10:26:38;36.30;57.90
1301;DHT22;59099;48.806;9.160;2022-09-12T10:29:18;36.40;54.80
1301;DHT22;59099;48.806;9.160;2022-09-12T10:31:52;36.80;53.80
1301;DHT22;59099;48.806;9.160;2022-09-12T10:34:23;36.00;57.00
1301;DHT22;59099;48.806;9.160;2022-09-12T10:37:02;35.90;53.00
1301;DHT22;59099;48.806;9.160;2022-09-12T10:39:29;36.20;61.30
1301;DHT22;59099;48.806;9.160;2022-09-12T10:41:55;36.80;57.10
1301;DHT22;59099;48.806;9.160;2022-09-12T10:44:30;37.10;55.90
1301;DHT22;59099;48.806;9.160;2022-09-12T10:46:58;37.70;54.50
1301;DHT22;59099;48.806;9.160;2022-09-12T10:49:27;37.80;50.90
1301;DHT22;59099;48.806;9.160;2022-09-12T10:51:55;37.70;55.60
1301;DHT22;59099;48.806;9.160;2022-09-12T10:54:26;37.40;54.80
1301;DHT22;59099;48.806;9.160;2022-09-12T11:00:10;36.70;50.80
1301;DHT22;59099;48.806;9.160;2022-09-12T11:07:50;37.80;49.00
1301;DHT22;59099;48.806;9.160;2022-09-12T11:13:20;38.30;49.40
1301;DHT22;59099;48.806;9.160;2022-09-12T11:27:17;38.00;47.30
1301;DHT22;59099;48.806;9.160;2022-09-12T11:40:52;37.40;51.50
1301;DHT22;59099;48.806;9.160;2022-09-12T11:43:54;37.50;51.20
1301;DHT22;59099;48.806;9.160;2022-09-12T11:46:41;37.50;49.60
1301;DHT22;59099;48.806;9.160;2022-09-12T12:00:26;35.70;47.10
1301;DHT22;59099;48.806;9.160;2022-09-12T12:06:05;35.00;50.30
1301;DHT22;59099;48.806;9.160;2022-09-12T12:08:37;35.70;51.90
1301;DHT22;59099;48.806;9.160;2022-09-12T12:11:08;36.50;47.80
1301;DHT22;59099;48.806;9.160;2022-09-12T12:14:42;37.00;50.00
1301;DHT22;59099;48.806;9.160;2022-09-12T12:16:39;37.10;45.10
1301;DHT22;59099;48.806;9.160;2022-09-12T12:19:23;36.90;46.70
1301;DHT22;59099;48.806;9.160;2022-09-12T12:21:51;35.80;45.40
1301;DHT22;59099;48.806;9.160;2022-09-12T12:24:28;35.00;44.00
1301;DHT22;59099;48.806;9.160;2022-09-12T12:27:04;34.10;45.40
1301;DHT22;59099;48.806;9.160;2022-09-12T12:29:45;34.40;45.50
1301;DHT22;59099;48.806;9.160;2022-09-12T12:34:44;35.90;48.70
1301;DHT22;59099;48.806;9.160;2022-09-12T12:58:32;35.20;44.20
1301;DHT22;59099;48.806;9.160;2022-09-12T13:03:35;35.10;47.30
1301;DHT22;59099;48.806;9.160;2022-09-12T13:06:02;35.30;45.20
1301;DHT22;59099;48.806;9.160;2022-09-12T13:08:32;35.70;50.60
1301;DHT22;59099;48.806;9.160;2022-09-12T13:11:10;35.80;45.30
1301;DHT22;59099;48.806;9.160;2022-09-12T13:13:56;35.90;55.90
1301;DHT22;59099;48.806;9.160;2022-09-12T13:16:30;35.90;44.60
1301;DHT22;59099;48.806;9.160;2022-09-12T13:19:02;35.60;44.80
1301;DHT22;59099;48.806;9.160;2022-09-12T13:21:28;35.70;44.70
1301;DHT22;59099;48.806;9.160;2022-09-12T13:24:12;35.80;45.70
1301;DHT22;59099;48.806;9.160;2022-09-12T13:26:44;36.10;45.30
1301;DHT22;59099;48.806;9.160;2022-09-12T13:29:23;36.40;45.10
1301;DHT22;59099;48.806;9.160;2022-09-12T13:31:58;37.10;45.20
1301;DHT22;59099;48.806;9.160;2022-09-12T13:34:42;37.80;47.00
1301;DHT22;59099;48.806;9.160;2022-09-12T13:42:47;35.10;45.30
1301;DHT22;59099;48.806;9.160;2022-09-12T13:45:23;35.20;44.90
1301;DHT22;59099;48.806;9.160;2022-09-12T13:48:03;35.40;48.30
1301;DHT22;59099;48.806;9.160;2022-09-12T13:50:48;34.90;49.90
1301;DHT22;59099;48.806;9.160;2022-09-12T13:53:18;34.80;48.20
1301;DHT22;59099;48.806;9.160;2022-09-12T13:55:47;35.50;46.30
1301;DHT22;59099;48.806;9.160;2022-09-12T13:58:21;36.90;47.10
1301;DHT22;59099;48.806;9.160;2022-09-12T14:06:13;38.10;45.40
1301;DHT22;59099;48.806;9.160;2022-09-12T14:08:45;38.90;40.10
1301;DHT22;59099;48.806;9.160;2022-09-12T14:11:22;38.10;39.10
1301;DHT22;59099;48.806;9.160;2022-09-12T14:13:49;38.00;39.60
1301;DHT22;59099;48.806;9.160;2022-09-12T14:16:22;37.30;40.90
1301;DHT22;59099;48.806;9.160;2022-09-12T14:18:49;37.40;41.50
1301;DHT22;59099;48.806;9.160;2022-09-12T14:21:46;37.40;44.90
1301;DHT22;59099;48.806;9.160;2022-09-12T14:26:55;37.00;45.70
1301;DHT22;59099;48.806;9.160;2022-09-12T14:29:21;38.00;48.00
1301;DHT22;59099;48.806;9.160;2022-09-12T14:32:00;38.40;40.50
1301;DHT22;59099;48.806;9.160;2022-09-12T14:34:27;38.10;39.90
1301;DHT22;59099;48.806;9.160;2022-09-12T14:36:54;37.90;42.50
1301;DHT22;59099;48.806;9.160;2022-09-12T14:39:32;38.10;48.50
1301;DHT22;59099;48.806;9.160;2022-09-12T14:42:10;38.30;41.80
1301;DHT22;59099;48.806;9.160;2022-09-12T14:44:38;37.30;44.30
1301;DHT22;59099;48.806;9.160;2022-09-12T14:47:19;36.70;41.00
1301;DHT22;59099;48.806;9.160;2022-09-12T14:49:47;36.50;47.10
1301;DHT22;59099;48.806;9.160;2022-09-12T14:55:02;37.50;42.00
1301;DHT22;59099;48.806;9.160;2022-09-12T14:57:37;36.80;41.90
1301;DHT22;59099;48.806;9.160;2022-09-12T15:00:24;36.40;46.10
1301;DHT22;59099;48.806;9.160;2022-09-12T15:02:51;36.80;41.90
1301;DHT22;59099;48.806;9.160;2022-09-12T15:05:23;37.50;43.50
1301;DHT22;59099;48.806;9.160;2022-09-12T15:10:34;38.80;40.20
1301;DHT22;59099;48.806;9.160;2022-09-12T15:18:12;37.70;41.70
1301;DHT22;59099;48.806;9.160;2022-09-12T15:20:40;37.80;44.60
1301;DHT22;59099;48.806;9.160;2022-09-12T15:23:20;38.00;45.60
1301;DHT22;59099;48.806;9.160;2022-09-12T15:25:48;37.80;46.60
1301;DHT22;59099;48.806;9.160;2022-09-12T15:28:20;37.30;49.40
1301;DHT22;59099;48.806;9.160;2022-09-12T15:30:47;37.50;46.00
1301;DHT22;59099;48.806;9.160;2022-09-12T15:33:21;37.60;44.50
1301;DHT22;59099;48.806;9.160;2022-09-12T15:35:49;37.40;43.60
1301;DHT22;59099;48.806;9.160;2022-09-12T15:38:15;37.60;42.50
1301;DHT22;59099;48.806;9.160;2022-09-12T15:40:41;38.00;47.80
1301;DHT22;59099;48.806;9.160;2022-09-12T15:43:09;37.70;41.90
1301;DHT22;59099;48.806;9.160;2022-09-12T15:45:40;37.90;42.50
1301;DHT22;59099;48.806;9.160;2022-09-12T15:48:07;37.40;42.70
1301;DHT22;59099;48.806;9.160;2022-09-12T15:50:33;37.40;49.90
1301;DHT22;59099;48.806;9.160;2022-09-12T15:53:00;36.90;46.60
1301;DHT22;59099;48.806;9.160;2022-09-12T15:55:28;36.20;42.20
1301;DHT22;59099;48.806;9.160;2022-09-12T15:57:54;35.60;41.70
1301;DHT22;59099;48.806;9.160;2022-09-12T16:00:21;35.50;42.80
1301;DHT22;59099;48.806;9.160;2022-09-12T16:02:49;35.40;45.30
1301;DHT22;59099;48.806;9.160;2022-09-12T16:05:18;34.90;49.00
1301;DHT22;59099;48.806;9.160;2022-09-12T16:07:44;35.00;44.50
1301;DHT22;59099;48.806;9.160;2022-09-12T16:10:16;35.20;43.10
1301;DHT22;59099;48.806;9.160;2022-09-12T16:12:42;35.20;48.50
1301;DHT22;59099;48.806;9.160;2022-09-12T16:15:14;35.00;43.80
1301;DHT22;59099;48.806;9.160;2022-09-12T16:17:40;34.50;45.40
1301;DHT22;59099;48.806;9.160;2022-09-12T16:20:09;34.50;47.10
1301;DHT22;59099;48.806;9.160;2022-09-12T16:22:36;34.60;46.70
1301;DHT22;59099;48.806;9.160;2022-09-12T16:25:03;34.10;47.10
1301;DHT22;59099;48.806;9.160;2022-09-12T16:27:29;33.80;47.10
1301;DHT22;59099;48.806;9.160;2022-09-12T16:29:55;33.80;45.60
1301;DHT22;59099;48.806;9.160;2022-09-12T16:32:21;33.50;48.30
1301;DHT22;59099;48.806;9.160;2022-09-12T16:34:47;33.30;51.70
1301;DHT22;59099;48.806;9.160;2022-09-12T16:37:13;32.50;47.10
1301;DHT22;59099;48.806;9.160;2022-09-12T16:39:38;32.00;50.00
1301;DHT22;59099;48.806;9.160;2022-09-12T16:42:04;31.70;49.20
1301;DHT22;59099;48.806;9.160;2022-09-12T16:44:30;31.50;49.40
1301;DHT22;59099;48.806;9.160;2022-09-12T16:46:55;31.00;49.60
1301;DHT22;59099;48.806;9.160;2022-09-12T16:49:24;30.60;50.10
1301;DHT22;59099;48.806;9.160;2022-09-12T16:51:49;30.20;50.40
1301;DHT22;59099;48.806;9.160;2022-09-12T16:54:16;29.90;55.60
1301;DHT22;59099;48.806;9.160;2022-09-12T16:56:43;29.70;57.30
1301;DHT22;59099;48.806;9.160;2022-09-12T16:59:09;29.40;53.00
1301;DHT22;59099;48.806;9.160;2022-09-12T17:01:38;29.00;52.10
1301;DHT22;59099;48.806;9.160;2022-09-12T17:04:04;28.50;53.50
1301;DHT22;59099;48.806;9.160;2022-09-12T17:06:34;28.10;54.50
1301;DHT22;59099;48.806;9.160;2022-09-12T17:09:01;27.70;55.10
1301;DHT22;59099;48.806;9.160;2022-09-12T17:11:33;27.50;56.00
1301;DHT22;59099;48.806;9.160;2022-09-12T17:14:00;27.30;57.20
1301;DHT22;59099;48.806;9.160;2022-09-12T17:16:27;27.10;58.20
1301;DHT22;59099;48.806;9.160;2022-09-12T17:18:53;26.90;59.90
1301;DHT22;59099;48.806;9.160;2022-09-12T17:21:19;26.50;62.20
1301;DHT22;59099;48.806;9.160;2022-09-12T17:23:45;26.10;64.00
1301;DHT22;59099;48.806;9.160;2022-09-12T17:26:11;25.60;64.70
1301;DHT22;59099;48.806;9.160;2022-09-12T17:28:38;25.10;67.20
1301;DHT22;59099;48.806;9.160;2022-09-12T17:31:06;24.80;70.50
1301;DHT22;59099;48.806;9.160;2022-09-12T17:33:36;24.50;69.80
1301;DHT22;59099;48.806;9.160;2022-09-12T17:36:09;24.20;71.60
1301;DHT22;59099;48.806;9.160;2022-09-12T17:38:40;23.90;73.10
1301;DHT22;59099;48.806;9.160;2022-09-12T17:41:46;23.60;75.00
1301;DHT22;59099;48.806;9.160;2022-09-12T17:44:37;23.20;77.40
1301;DHT22;59099;48.806;9.160;2022-09-12T17:47:03;22.80;78.40
1301;DHT22;59099;48.806;9.160;2022-09-12T17:49:29;22.50;79.30
1301;DHT22;59099;48.806;9.160;2022-09-12T17:51:56;22.30;81.20
1301;DHT22;59099;48.806;9.160;2022-09-12T17:54:22;22.00;82.40
1301;DHT22;59099;48.806;9.160;2022-09-12T17:56:49;21.90;83.80
1301;DHT22;59099;48.806;9.160;2022-09-12T17:59:20;21.60;84.40
1301;DHT22;59099;48.806;9.160;2022-09-12T18:01:47;21.40;85.40
1301;DHT22;59099;48.806;9.160;2022-09-12T18:04:32;21.30;86.70
1301;DHT22;59099;48.806;9.160;2022-09-12T18:06:57;21.20;88.10
1301;DHT22;59099;48.806;9.160;2022-09-12T18:09:25;21.00;89.20
1301;DHT22;59099;48.806;9.160;2022-09-12T18:11:51;20.90;89.00
1301;DHT22;59099;48.806;9.160;2022-09-12T18:14:17;20.70;90.10
1301;DHT22;59099;48.806;9.160;2022-09-12T18:16:45;20.60;90.80
1301;DHT22;59099;48.806;9.160;2022-09-12T18:19:11;20.60;91.10
1301;DHT22;59099;48.806;9.160;2022-09-12T18:21:37;20.40;91.80
1301;DHT22;59099;48.806;9.160;2022-09-12T18:24:03;20.10;92.00
1301;DHT22;59099;48.806;9.160;2022-09-12T18:26:30;20.00;93.00
1301;DHT22;59099;48.806;9.160;2022-09-12T18:28:55;20.00;93.40
1301;DHT22;59099;48.806;9.160;2022-09-12T18:31:24;19.80;93.40
1301;DHT22;59099;48.806;9.160;2022-09-12T18:39:15;19.60;95.30
1301;DHT22;59099;48.806;9.160;2022-09-12T18:41:41;19.50;96.20
1301;DHT22;59099;48.806;9.160;2022-09-12T18:44:10;19.40;96.80
1301;DHT22;59099;48.806;9.160;2022-09-12T18:46:36;19.40;97.10
1301;DHT22;59099;48.806;9.160;2022-09-12T18:49:02;19.30;97.80
1301;DHT22;59099;48.806;9.160;2022-09-12T18:51:31;19.10;98.30
1301;DHT22;59099;48.806;9.160;2022-09-12T18:54:10;19.00;99.90
1301;DHT22;59099;48.806;9.160;2022-09-12T18:56:36;19.00;99.90
1301;DHT22;59099;48.806;9.160;2022-09-12T18:59:04;18.80;99.90
1301;DHT22;59099;48.806;9.160;2022-09-12T19:01:35;18.70;99.90
1301;DHT22;59099;48.806;9.160;2022-09-12T19:04:05;18.70;99.90
1301;DHT22;59099;48.806;9.160;2022-09-12T19:06:33;18.60;99.90
1301;DHT22;59099;48.806;9.160;2022-09-12T19:09:24;18.60;99.90